Time;durP1;ratioP1;P1;durP2;ratioP2;P2;SDS_P1;SDS_P2;PMS_P1;PMS_P2;Temp;Humidity;BMP_temperature;BMP_pressure;BME280_temperature;BME280_humidity;BME280_pressure;Samples;Min_cycle;Max_cycle;Signal;HPM_P1;HPM_P2
2021/11/01 00:02:07;;;;;;;35.03;17.07;;;6.10;99.90;;;;;;5001282;28;20176;-85
2021/11/01 00:04:33;;;;;;;34.47;18.60;;;5.90;99.90;;;;;;5035347;28;20181;-86
2021/11/01 00:06:58;;;;;;;31.70;18.17;;;6.00;99.90;;;;;;5035177;28;20228;-85
2021/11/01 00:09:28;;;;;;;34.47;18.50;;;6.00;99.90;;;;;;5017194;28;20213;-85
2021/11/01 00:11:54;;;;;;;36.33;18.83;;;5.90;99.90;;;;;;5001614;28;20216;-85
2021/11/01 00:14:20;;;;;;;34.47;18.70;;;5.90;99.90;;;;;;5016870;28;20716;-85
2021/11/01 00:16:46;;;;;;;32.80;17.17;;;5.80;99.90;;;;;;5035023;28;20289;-85
2021/11/01 00:19:12;;;;;;;39.13;17.80;;;5.80;99.90;;;;;;5001083;28;20185;-85
2021/11/01 00:21:38;;;;;;;32.80;18.90;;;5.80;99.90;;;;;;5017112;28;20621;-85
2021/11/01 00:24:04;;;;;;;31.90;17.70;;;5.80;99.90;;;;;;5035278;28;20662;-85
2021/11/01 00:26:30;;;;;;;30.27;16.73;;;5.80;99.90;;;;;;5034383;28;20206;-84
2021/11/01 00:28:55;;;;;;;34.53;18.10;;;5.90;99.90;;;;;;5000610;28;20283;-85
2021/11/01 00:31:21;;;;;;;32.47;17.60;;;5.80;99.90;;;;;;5016891;28;20185;-85
2021/11/01 00:33:47;;;;;;;30.70;16.43;;;5.80;99.90;;;;;;5000567;28;20628;-85
2021/11/01 00:36:12;;;;;;;31.27;16.57;;;5.90;99.90;;;;;;5000288;28;20659;-85
2021/11/01 00:38:38;;;;;;;30.83;17.03;;;5.90;99.90;;;;;;5000424;28;20319;-86
2021/11/01 00:41:04;;;;;;;34.77;17.10;;;5.80;99.90;;;;;;5017179;28;20185;-85
2021/11/01 00:43:29;;;;;;;29.37;16.33;;;5.90;99.90;;;;;;5000349;28;20644;-85
2021/11/01 00:45:55;;;;;;;28.80;17.13;;;5.90;99.90;;;;;;5016470;28;20227;-86
2021/11/01 00:48:21;;;;;;;35.23;17.17;;;5.80;99.90;;;;;;5034132;28;20180;-85
2021/11/01 00:50:47;;;;;;;30.43;16.23;;;5.80;99.90;;;;;;5033792;28;20226;-85
2021/11/01 00:53:13;;;;;;;34.80;17.20;;;5.80;99.90;;;;;;5033972;28;20176;-85
2021/11/01 00:55:51;;;;;;;31.27;16.70;;;6.40;99.90;;;;;;5000199;28;20234;-85
2021/11/01 00:58:22;;;;;;;29.10;16.50;;;5.70;99.90;;;;;;5016841;28;20183;-84
2021/11/01 01:00:48;;;;;;;29.70;17.27;;;5.70;99.90;;;;;;4999838;28;20191;-84
2021/11/01 01:03:15;;;;;;;32.80;17.10;;;5.70;99.90;;;;;;5034102;28;20633;-85
2021/11/01 01:05:43;;;;;;;33.00;17.07;;;5.70;99.90;;;;;;5016368;28;20189;-86
2021/11/01 01:08:10;;;;;;;33.70;17.50;;;5.60;99.90;;;;;;5016478;28;20668;-85
2021/11/01 01:10:35;;;;;;;32.37;17.03;;;5.50;99.90;;;;;;5016721;28;20199;-85
2021/11/01 01:13:01;;;;;;;36.07;18.23;;;5.50;99.90;;;;;;5016814;28;20642;-85
2021/11/01 01:15:29;;;;;;;36.53;17.70;;;5.40;99.90;;;;;;5016513;28;20630;-85
2021/11/01 01:18:03;;;;;;;31.03;16.80;;;5.30;99.90;;;;;;5034081;28;20184;-85
2021/11/01 01:20:29;;;;;;;37.27;18.43;;;5.30;99.90;;;;;;5001871;28;20190;-85
2021/11/01 01:22:55;;;;;;;34.33;18.03;;;5.20;99.90;;;;;;5016505;28;20180;-84
2021/11/01 01:25:26;;;;;;;45.27;18.80;;;5.10;99.90;;;;;;5015896;28;20180;-83
2021/11/01 01:27:53;;;;;;;40.83;18.30;;;5.10;99.90;;;;;;5000145;28;20226;-84
2021/11/01 01:30:20;;;;;;;38.63;18.83;;;5.10;99.90;;;;;;5015956;28;20177;-84
2021/11/01 01:32:46;;;;;;;32.53;17.93;;;5.00;99.90;;;;;;4999338;28;20651;-85
2021/11/01 01:35:13;;;;;;;33.47;18.10;;;5.10;99.90;;;;;;5015784;28;20212;-84
2021/11/01 01:37:39;;;;;;;35.70;17.17;;;5.00;99.90;;;;;;5033384;28;20175;-83
2021/11/01 01:40:07;;;;;;;33.97;17.30;;;5.00;99.90;;;;;;5031447;28;20184;-84
2021/11/01 01:42:34;;;;;;;32.87;17.03;;;5.00;99.90;;;;;;5018431;28;20653;-84
2021/11/01 01:45:00;;;;;;;36.00;17.40;;;;;;;;;;5032326;28;20629;-84
2021/11/01 01:47:26;;;;;;;36.90;19.57;;;4.90;99.90;;;;;;5050704;28;20212;-84
2021/11/01 01:49:52;;;;;;;41.13;23.23;;;;;;;;;;5016443;28;20193;-84
2021/11/01 01:52:21;;;;;;;63.00;32.80;;;4.80;99.90;;;;;;5034162;28;20176;-84
2021/11/01 01:54:47;;;;;;;38.07;21.53;;;4.80;99.90;;;;;;5033564;28;20186;-85
2021/11/01 01:57:13;;;;;;;32.07;17.70;;;4.80;99.90;;;;;;5012265;28;20619;-83
2021/11/01 01:59:39;;;;;;;30.13;18.00;;;4.80;99.90;;;;;;5025246;28;20203;-83
2021/11/01 02:02:05;;;;;;;36.47;19.00;;;4.80;99.90;;;;;;5026136;28;20191;-84
2021/11/01 02:04:32;;;;;;;41.80;21.13;;;4.70;99.90;;;;;;5010740;28;20176;-84
2021/11/01 02:07:32;;;;;;;34.97;19.97;;;4.70;99.90;;;;;;5002955;28;20207;-85
2021/11/01 02:10:11;;;;;;;30.80;18.70;;;4.70;99.90;;;;;;5026213;28;20271;-84
2021/11/01 02:12:57;;;;;;;32.00;18.47;;;4.70;99.90;;;;;;5022313;28;20264;-85
2021/11/01 02:15:36;;;;;;;33.00;19.30;;;4.60;99.90;;;;;;5046889;28;20234;-85
2021/11/01 02:18:02;;;;;;;33.10;17.07;;;4.60;99.90;;;;;;5037330;28;20293;-84
2021/11/01 02:20:59;;;;;;;30.80;17.37;;;4.60;99.90;;;;;;5037418;28;20184;-85
2021/11/01 02:23:29;;;;;;;31.63;17.17;;;4.60;99.90;;;;;;5019776;28;20188;-85
2021/11/01 02:25:58;;;;;;;29.90;15.97;;;4.50;99.90;;;;;;5036982;28;20194;-85
2021/11/01 02:28:35;;;;;;;34.37;17.53;;;4.50;99.90;;;;;;5019509;28;20173;-85
2021/11/01 02:31:03;;;;;;;35.37;18.13;;;4.50;99.90;;;;;;5003127;28;20180;-85
2021/11/01 02:33:32;;;;;;;38.47;20.50;;;4.40;99.90;;;;;;5037168;28;20177;-85
2021/11/01 02:35:58;;;;;;;50.87;24.00;;;;;;;;;;5036481;28;20219;-85
2021/11/01 02:38:29;;;;;;;39.40;21.07;;;4.40;99.90;;;;;;5018993;28;20199;-85
2021/11/01 02:40:55;;;;;;;35.67;18.83;;;4.30;99.90;;;;;;5002917;28;20184;-85
2021/11/01 02:43:21;;;;;;;30.30;17.67;;;4.40;99.90;;;;;;5019035;28;20187;-85
2021/11/01 02:45:47;;;;;;;32.03;18.17;;;4.40;99.90;;;;;;5002651;28;20689;-86
2021/11/01 02:48:14;;;;;;;32.00;17.87;;;;;;;;;;5036678;28;20176;-85
2021/11/01 02:50:40;;;;;;;35.67;18.63;;;4.30;99.90;;;;;;5019030;28;20629;-85
2021/11/01 02:53:06;;;;;;;35.37;17.53;;;4.30;99.90;;;;;;5018640;28;20188;-85
2021/11/01 02:55:34;;;;;;;35.40;17.63;;;4.20;99.90;;;;;;5002794;28;20186;-85
2021/11/01 02:57:59;;;;;;;38.17;19.27;;;4.40;99.90;;;;;;5018669;28;20204;-85
2021/11/01 03:00:28;;;;;;;34.90;18.00;;;4.20;99.90;;;;;;5036537;28;20177;-85
2021/11/01 03:02:55;;;;;;;38.07;18.53;;;4.20;99.90;;;;;;5018597;28;20191;-84
2021/11/01 03:05:23;;;;;;;30.63;16.93;;;4.10;99.90;;;;;;5002660;28;20222;-84
2021/11/01 03:07:53;;;;;;;29.80;17.70;;;4.10;99.90;;;;;;5018822;28;20191;-84
2021/11/01 03:10:20;;;;;;;36.70;18.60;;;4.70;99.90;;;;;;5018596;28;20184;-84
2021/11/01 03:12:47;;;;;;;40.17;20.70;;;4.30;99.90;;;;;;5035893;28;20179;-84
2021/11/01 03:15:24;;;;;;;42.63;20.27;;;4.10;99.90;;;;;;5035777;28;20315;-84
2021/11/01 03:17:59;;;;;;;35.00;18.37;;;4.00;99.90;;;;;;5003162;28;20211;-84
2021/11/01 03:20:33;;;;;;;34.73;17.83;;;4.00;99.90;;;;;;5036059;28;20637;-84
2021/11/01 03:23:06;;;;;;;37.53;18.33;;;4.40;99.90;;;;;;5035976;28;20255;-84
2021/11/01 03:25:38;;;;;;;33.03;18.27;;;4.00;99.90;;;;;;5035992;28;20157;-84
2021/11/01 03:28:05;;;;;;;27.43;16.03;;;3.90;99.90;;;;;;5001634;28;20287;-84
2021/11/01 03:30:32;;;;;;;31.47;18.13;;;3.80;99.90;;;;;;5035854;28;20184;-84
2021/11/01 03:32:59;;;;;;;32.93;18.63;;;3.90;99.90;;;;;;5035872;28;20188;-84
2021/11/01 03:35:27;;;;;;;36.23;18.63;;;3.80;99.90;;;;;;5018071;28;20194;-84
2021/11/01 03:37:55;;;;;;;33.40;18.03;;;4.10;99.90;;;;;;5036189;28;20266;-84
2021/11/01 03:40:22;;;;;;;32.27;17.73;;;4.60;99.90;;;;;;5018235;28;20196;-84
2021/11/01 03:42:52;;;;;;;33.30;17.53;;;3.80;99.90;;;;;;5001974;28;20282;-85
2021/11/01 03:45:19;;;;;;;29.50;18.10;;;3.80;99.90;;;;;;5018815;28;20168;-84
2021/11/01 03:47:48;;;;;;;36.33;18.53;;;3.70;99.90;;;;;;5018345;28;20194;-84
2021/11/01 03:52:53;;;;;;;33.37;19.47;;;3.70;99.90;;;;;;5036263;28;20270;-84
2021/11/01 03:55:21;;;;;;;37.17;21.83;;;3.30;99.90;;;;;;5035690;28;20188;-84
2021/11/01 03:57:48;;;;;;;39.53;19.47;;;3.80;99.90;;;;;;5017861;28;20213;-84
2021/11/01 04:00:15;;;;;;;38.93;21.20;;;3.60;99.90;;;;;;5017502;28;20188;-84
2021/11/01 04:02:44;;;;;;;35.83;20.63;;;3.60;99.90;;;;;;5035915;28;20263;-84
2021/11/01 04:05:09;;;;;;;32.63;17.63;;;3.60;99.90;;;;;;5017972;28;20599;-84
2021/11/01 04:07:35;;;;;;;37.87;20.07;;;3.90;99.90;;;;;;5017936;28;20190;-84
2021/11/01 04:10:02;;;;;;;39.63;19.47;;;3.50;99.90;;;;;;5001037;28;20240;-84
2021/11/01 04:12:29;;;;;;;36.17;19.17;;;3.50;99.90;;;;;;5017461;28;20235;-84
2021/11/01 04:15:04;;;;;;;36.33;18.70;;;3.50;99.90;;;;;;5000646;28;20249;-85
2021/11/01 04:22:42;;;;;;;29.73;17.73;;;3.40;99.90;;;;;;5018670;28;20197;-84
2021/11/01 04:25:09;;;;;;;35.00;18.50;;;3.60;99.90;;;;;;5018242;28;20224;-84
2021/11/01 04:27:36;;;;;;;34.87;18.93;;;3.70;99.90;;;;;;5019229;28;20209;-84
2021/11/01 04:30:04;;;;;;;37.60;18.13;;;3.40;99.90;;;;;;5018603;28;20185;-88
2021/11/01 04:35:03;;;;;;;38.73;21.23;;;3.30;99.90;;;;;;5058604;28;20169;-84
2021/11/01 04:37:31;;;;;;;34.80;19.37;;;4.00;99.90;;;;;;5059292;28;20180;-83
2021/11/01 04:53:09;;;;;;;33.17;20.20;;;3.20;99.90;;;;;;5059041;28;20197;-92
2021/11/01 04:55:35;;;;;;;35.77;20.30;;;3.10;99.90;;;;;;5026573;28;20246;-83
2021/11/01 04:58:02;;;;;;;39.13;20.60;;;3.10;99.90;;;;;;5020118;28;20242;-84
2021/11/01 05:00:28;;;;;;;33.70;19.23;;;3.10;99.90;;;;;;5000561;28;20214;-85
2021/11/01 05:03:02;;;;;;;35.40;18.70;;;4.00;99.90;;;;;;5017153;28;20217;-85
2021/11/01 05:05:27;;;;;;;34.10;18.37;;;3.10;99.90;;;;;;5017842;28;20600;-85
2021/11/01 05:07:54;;;;;;;33.93;19.07;;;3.50;99.90;;;;;;4983917;28;20188;-85
2021/11/01 05:10:27;;;;;;;37.37;18.07;;;3.00;99.90;;;;;;4984354;28;20177;-86
2021/11/01 05:12:53;;;;;;;36.70;18.67;;;3.00;99.90;;;;;;5034293;28;20167;-85
2021/11/01 05:15:32;;;;;;;36.93;18.83;;;4.60;99.90;;;;;;5016217;28;20685;-84
2021/11/01 05:18:15;;;;;;;37.83;19.50;;;3.10;99.90;;;;;;5034178;28;20648;-84
2021/11/01 05:20:45;;;;;;;32.43;17.03;;;4.00;99.90;;;;;;5020716;28;20192;-84
2021/11/01 05:26:00;;;;;;;35.57;18.17;;;3.00;99.90;;;;;;5034065;28;20212;-85
2021/11/01 05:31:06;;;;;;;34.97;17.97;;;4.20;99.90;;;;;;5016164;28;20646;-85
2021/11/01 05:35:57;;;;;;;36.47;18.33;;;3.00;99.90;;;;;;5016410;28;20190;-85
2021/11/01 05:38:22;;;;;;;42.83;18.70;;;3.00;99.90;;;;;;4999626;28;20197;-85
2021/11/01 05:40:48;;;;;;;39.43;18.97;;;3.10;99.90;;;;;;5016383;28;20189;-85
2021/11/01 05:43:14;;;;;;;34.70;18.43;;;3.10;99.90;;;;;;5000181;28;20180;-84
2021/11/01 05:45:40;;;;;;;36.47;19.20;;;3.10;99.90;;;;;;5034991;28;20271;-84
2021/11/01 05:48:05;;;;;;;36.63;17.73;;;3.20;99.90;;;;;;5015130;28;20551;-85
2021/11/01 05:50:35;;;;;;;38.87;19.73;;;3.50;99.90;;;;;;5015428;28;20797;-84
2021/11/01 05:53:04;;;;;;;37.13;19.27;;;3.20;99.90;;;;;;5033414;28;20184;-85
2021/11/01 06:05:57;;;;;;;39.73;21.30;;;3.30;99.90;;;;;;5032707;28;20181;-86
2021/11/01 06:13:57;;;;;;;63.50;24.47;;;3.60;99.90;;;;;;5002919;28;20185;-85
2021/11/01 06:16:24;;;;;;;54.60;22.40;;;3.70;99.90;;;;;;5032486;28;20225;-84
2021/11/01 06:18:50;;;;;;;49.90;22.67;;;3.70;99.90;;;;;;5032322;28;20238;-84
2021/11/01 06:21:17;;;;;;;42.23;21.13;;;3.80;99.90;;;;;;5008929;28;20199;-86
2021/11/01 06:23:55;;;;;;;46.40;21.83;;;3.90;99.90;;;;;;5014220;28;20183;-84
2021/11/01 06:26:22;;;;;;;38.90;19.50;;;4.00;99.90;;;;;;5026494;28;20195;-86
2021/11/01 06:28:54;;;;;;;34.73;19.10;;;4.20;99.90;;;;;;5026442;28;20622;-87
2021/11/01 06:31:29;;;;;;;39.60;20.60;;;4.10;99.90;;;;;;5002619;28;20187;-86
2021/11/01 06:57:24;;;;;;;48.33;22.13;;;5.20;99.90;;;;;;5010672;28;20270;-87
2021/11/01 07:20:26;;;;;;;30.00;15.47;;;6.60;99.90;;;;;;4972429;28;20665;-84
2021/11/01 09:11:39;;;;;;;34.67;16.20;;;10.40;99.90;;;;;;4991403;28;20295;-84
2021/11/01 09:26:58;;;;;;;24.37;14.13;;;10.90;99.90;;;;;;5021278;28;20184;-86
2021/11/01 09:42:54;;;;;;;31.48;13.82;;;11.60;99.90;;;;;;5009425;28;20482;-86
2021/11/01 09:45:22;;;;;;;59.07;31.37;;;11.80;99.90;;;;;;5004574;28;20192;-86
2021/11/01 09:47:49;;;;;;;25.48;14.20;;;12.00;99.90;;;;;;5004792;28;20203;-87
2021/11/01 09:50:18;;;;;;;32.88;16.05;;;12.10;99.90;;;;;;5004235;28;20182;-86
2021/11/01 09:52:47;;;;;;;29.05;14.77;;;12.30;99.90;;;;;;5023360;28;20182;-88
2021/11/01 09:55:46;;;;;;;39.25;18.95;;;12.40;99.90;;;;;;5008069;28;20193;-86
2021/11/01 10:00:55;;;;;;;39.53;19.75;;;12.80;99.90;;;;;;5002056;28;20282;-86
2021/11/01 10:03:32;;;;;;;32.13;16.83;;;12.80;99.90;;;;;;5022313;28;20235;-86
2021/11/01 10:05:59;;;;;;;30.38;17.73;;;12.90;99.90;;;;;;5006345;28;20247;-86
2021/11/01 10:08:26;;;;;;;27.20;14.82;;;13.00;99.90;;;;;;5004569;28;20267;-88
2021/11/01 10:10:52;;;;;;;26.67;14.07;;;13.20;99.90;;;;;;5024030;28;20539;-87
2021/11/01 10:13:17;;;;;;;29.48;14.82;;;13.30;99.90;;;;;;5016662;28;20263;-87
2021/11/01 10:18:29;;;;;;;22.50;12.88;;;13.50;99.90;;;;;;5024935;28;20223;-87
2021/11/01 10:20:59;;;;;;;23.17;13.10;;;13.70;99.90;;;;;;5005439;28;20591;-86
2021/11/01 10:23:31;;;;;;;22.27;12.55;;;13.80;99.90;;;;;;5025048;28;20184;-88
2021/11/01 10:26:15;;;;;;;33.25;13.13;;;13.80;99.90;;;;;;5011441;28;20208;-86
2021/11/01 10:28:42;;;;;;;19.13;12.50;;;13.80;99.90;;;;;;5026780;28;20693;-88
2021/11/01 10:31:27;;;;;;;29.25;14.00;;;13.70;99.90;;;;;;5005209;28;20192;-86
2021/11/01 10:34:06;;;;;;;23.25;12.95;;;13.70;99.90;;;;;;5018681;28;20213;-86
2021/11/01 10:36:36;;;;;;;19.48;11.40;;;13.80;99.90;;;;;;5032530;28;20208;-85
2021/11/01 10:39:08;;;;;;;19.25;11.27;;;13.80;99.90;;;;;;5010728;28;20267;-88
2021/11/01 11:11:39;;;;;;;23.67;11.10;;;13.70;99.90;;;;;;5045532;28;20207;-90
2021/11/01 11:14:24;;;;;;;15.38;10.25;;;13.80;99.90;;;;;;5000494;28;20201;-86
2021/11/01 11:19:40;;;;;;;22.23;11.60;;;14.30;99.90;;;;;;5004412;28;20702;-86
2021/11/01 11:49:01;;;;;;;19.45;10.52;;;17.40;99.90;;;;;;5022495;28;20216;-87
2021/11/01 11:51:29;;;;;;;16.98;9.98;;;18.10;99.90;;;;;;5017295;28;20176;-86
2021/11/01 11:53:58;;;;;;;14.02;9.48;;;18.10;99.90;;;;;;5017767;28;20185;-87
2021/11/01 11:56:30;;;;;;;17.95;10.88;;;18.00;99.90;;;;;;5012813;28;20199;-85
2021/11/01 11:58:59;;;;;;;15.13;10.20;;;17.60;99.90;;;;;;5001842;28;20752;-88
2021/11/01 12:01:29;;;;;;;18.20;9.95;;;17.20;99.90;;;;;;5000746;28;20209;-88
2021/11/01 12:04:03;;;;;;;14.85;9.70;;;16.90;99.90;;;;;;5024037;28;20185;-87
2021/11/01 12:06:46;;;;;;;15.93;10.75;;;16.80;99.90;;;;;;5000414;28;20634;-87
2021/11/01 12:09:19;;;;;;;15.23;9.95;;;16.70;99.90;;;;;;4999672;28;20204;-87
2021/11/01 12:17:03;;;;;;;18.98;10.07;;;16.70;99.90;;;;;;5017226;28;20247;-87
2021/11/01 12:17:19;;;;;;;15.45;10.60;;;16.90;99.90;;;;;;5022930;28;20213;-86
2021/11/01 12:19:45;;;;;;;17.95;10.23;;;16.90;99.60;;;;;;5017356;28;20191;-88
2021/11/01 12:22:34;;;;;;;20.67;10.90;;;16.90;99.90;;;;;;5001893;28;20295;-87
2021/11/01 12:25:06;;;;;;;14.30;10.00;;;17.00;98.30;;;;;;5002978;28;20642;-87
2021/11/01 12:27:34;;;;;;;17.70;11.70;;;17.20;97.70;;;;;;4999891;28;20231;-87
2021/11/01 12:30:07;;;;;;;15.77;10.35;;;16.90;96.90;;;;;;5000538;28;20193;-87
2021/11/01 12:32:37;;;;;;;15.23;9.63;;;16.80;97.30;;;;;;5001647;28;20176;-87
2021/11/01 12:35:07;;;;;;;15.70;10.70;;;16.60;97.90;;;;;;5002524;28;20185;-87
2021/11/01 12:37:39;;;;;;;18.60;10.88;;;16.80;97.50;;;;;;4987785;28;20212;-85
2021/11/01 12:43:06;;;;;;;20.88;11.60;;;17.40;96.10;;;;;;5018348;28;20267;-88
2021/11/01 12:59:47;;;;;;;18.63;10.10;;;19.10;92.40;;;;;;5006132;28;20211;-88
2021/11/01 13:02:26;;;;;;;19.33;10.25;;;19.40;92.10;;;;;;5000662;28;20328;-88
2021/11/01 13:04:55;;;;;;;15.00;10.00;;;19.60;91.40;;;;;;5006314;28;20181;-87
2021/11/01 13:10:22;;;;;;;24.40;11.43;;;19.40;90.80;;;;;;5005325;28;20246;-87
2021/11/01 13:13:09;;;;;;;16.65;11.02;;;19.50;90.60;;;;;;4988470;28;20219;-86
2021/11/01 13:18:08;;;;;;;18.88;11.20;;;19.60;88.80;;;;;;5017478;28;20225;-84
2021/11/01 13:21:00;;;;;;;16.48;10.65;;;19.30;89.50;;;;;;5022675;28;20181;-86
2021/11/01 13:23:31;;;;;;;21.60;10.95;;;19.00;89.70;;;;;;5008824;28;20211;-84
2021/11/01 13:40:09;;;;;;;26.80;14.63;;;18.50;88.50;;;;;;5001182;28;20193;-85
2021/11/01 13:42:36;;;;;;;23.58;12.23;;;18.20;88.80;;;;;;5020396;28;20181;-86
2021/11/01 13:45:15;;;;;;;26.73;15.10;;;18.00;89.70;;;;;;4994984;28;20186;-88
2021/11/01 13:47:46;;;;;;;19.33;11.73;;;18.00;89.80;;;;;;4999520;28;20200;-86
2021/11/01 13:50:24;;;;;;;15.45;10.48;;;17.60;89.80;;;;;;5019522;28;20185;-87
2021/11/01 13:53:13;;;;;;;15.05;9.43;;;18.30;91.70;;;;;;5012681;28;20227;-87
2021/11/01 14:10:51;;;;;;;20.58;11.50;;;14.80;93.70;;;;;;5024863;28;20184;-87
2021/11/01 14:14:45;;;;;;;21.30;10.88;;;13.10;98.30;;;;;;5012545;28;20657;-86
2021/11/01 14:28:35;;;;;;;16.20;9.43;;;12.30;99.90;;;;;;5019617;28;20228;-87
2021/11/01 16:15:43;;;;;;;52.93;27.60;;;9.30;99.90;;;;;;4994996;28;20246;-87
2021/11/01 16:18:11;;;;;;;50.73;25.20;;;9.30;99.90;;;;;;5005708;28;20243;-85
2021/11/01 16:20:37;;;;;;;58.20;27.53;;;9.20;99.90;;;;;;5002221;28;20283;-84
2021/11/01 16:26:26;;;;;;;40.53;20.87;;;8.90;99.90;;;;;;5251677;22;21269;-88
2021/11/01 16:28:58;;;;;;;30.97;17.17;;;9.00;99.90;;;;;;5012035;28;20774;-84
2021/11/01 16:31:31;;;;;;;28.87;15.70;;;9.00;99.90;;;;;;5013302;28;20189;-87
2021/11/01 16:34:13;;;;;;;26.53;14.10;;;9.00;99.90;;;;;;5014543;28;20244;-87
2021/11/01 16:39:33;;;;;;;26.57;14.87;;;8.80;99.90;;;;;;5014753;28;20177;-85
2021/11/01 16:41:59;;;;;;;32.27;16.60;;;8.90;99.90;;;;;;5014494;28;20161;-86
2021/11/01 16:44:27;;;;;;;57.43;25.87;;;8.80;99.90;;;;;;4997508;28;20189;-84
2021/11/01 16:46:54;;;;;;;42.00;24.60;;;8.80;99.90;;;;;;5013487;28;20263;-84
2021/11/01 16:49:21;;;;;;;35.97;19.10;;;8.70;99.90;;;;;;4997294;28;20271;-85
2021/11/01 16:51:48;;;;;;;31.23;19.17;;;8.70;99.90;;;;;;5012896;28;20274;-84
2021/11/01 16:54:17;;;;;;;32.60;20.47;;;8.60;99.90;;;;;;4996850;28;20186;-84
2021/11/01 16:59:56;;;;;;;37.30;21.63;;;8.40;99.90;;;;;;5014374;28;20663;-86
2021/11/01 17:04:58;;;;;;;29.87;17.53;;;8.30;99.90;;;;;;5014011;28;20332;-84
2021/11/01 17:10:34;;;;;;;32.50;18.20;;;8.20;99.90;;;;;;5013085;28;20177;-84
2021/11/01 17:21:38;;;;;;;35.47;20.07;;;7.80;99.90;;;;;;5015017;28;20231;-85
2021/11/01 17:38:41;;;;;;;46.97;24.93;;;7.30;99.90;;;;;;5025225;28;20243;-86
2021/11/01 18:53:04;;;;;;;82.87;38.03;;;5.70;99.90;;;;;;5011532;28;20184;-85
2021/11/01 18:55:32;;;;;;;82.53;38.57;;;5.70;99.90;;;;;;5014368;28;20177;-84
2021/11/01 18:57:58;;;;;;;84.33;39.90;;;5.60;99.90;;;;;;5016966;28;20205;-85
2021/11/01 19:00:25;;;;;;;72.57;36.13;;;5.60;99.90;;;;;;4999430;28;20185;-86
2021/11/01 19:02:53;;;;;;;87.87;38.93;;;5.50;99.90;;;;;;5015398;28;20269;-86
2021/11/01 19:08:13;;;;;;;74.23;37.73;;;5.40;99.90;;;;;;5015623;28;20173;-86
2021/11/01 20:14:31;;;;;;;86.10;38.10;;;4.30;99.90;;;;;;5013495;28;20195;-86
2021/11/01 21:26:47;;;;;;;139.90;56.70;;;3.20;99.90;;;;;;5012935;28;20294;-87
2021/11/01 21:29:13;;;;;;;135.37;54.93;;;5.20;99.90;;;;;;5012563;28;20186;-86
2021/11/01 21:31:38;;;;;;;134.63;56.17;;;3.20;99.90;;;;;;5012475;28;20584;-87
2021/11/01 21:34:07;;;;;;;132.40;54.33;;;5.00;99.90;;;;;;5012438;28;20219;-86
2021/11/01 21:36:33;;;;;;;117.93;51.03;;;;;;;;;;4996590;28;20275;-88
2021/11/01 21:38:59;;;;;;;132.47;56.73;;;;;;;;;;5013501;28;20211;-88
2021/11/01 21:41:26;;;;;;;132.13;55.07;;;3.10;99.90;;;;;;4996283;28;20195;-87
2021/11/01 21:43:53;;;;;;;139.93;56.27;;;3.00;99.90;;;;;;5013610;28;20177;-87
2021/11/01 21:46:19;;;;;;;160.17;62.43;;;4.00;99.90;;;;;;5012632;28;20179;-87
2021/11/01 21:48:45;;;;;;;136.73;60.07;;;;;;;;;;5012992;28;20712;-87
2021/11/01 21:51:15;;;;;;;154.40;59.90;;;3.00;99.90;;;;;;5016246;28;20549;-87
2021/11/01 21:53:42;;;;;;;168.57;62.87;;;;;;;;;;5012154;28;20296;-87
2021/11/01 21:56:11;;;;;;;219.77;76.97;;;;;;;;;;5013236;28;20176;-85
2021/11/01 22:20:11;;;;;;;233.60;82.23;;;4.00;99.90;;;;;;5012271;28;20179;-86
2021/11/01 22:25:15;;;;;;;262.13;81.67;;;2.70;99.90;;;;;;5013243;28;20193;-87
2021/11/01 22:41:01;;;;;;;359.60;101.73;;;;;;;;;;5016765;28;20189;-86
2021/11/01 22:56:56;;;;;;;138.40;52.90;;;3.20;99.90;;;;;;5017055;28;20224;-85
2021/11/01 22:59:21;;;;;;;140.23;51.70;;;2.40;99.90;;;;;;5015913;28;20183;-85
2021/11/01 23:01:49;;;;;;;114.13;45.13;;;3.60;99.90;;;;;;5016829;28;20189;-86
2021/11/01 23:06:58;;;;;;;108.33;45.00;;;2.30;99.90;;;;;;5015844;28;20173;-89
2021/11/01 23:31:28;;;;;;;113.17;43.20;;;3.20;99.90;;;;;;5015974;28;20260;-86
2021/11/01 23:33:54;;;;;;;96.77;41.07;;;2.90;99.90;;;;;;5015012;28;20183;-87
2021/11/01 23:36:20;;;;;;;98.77;42.17;;;2.30;99.90;;;;;;5016336;28;20261;-86
2021/11/01 23:38:50;;;;;;;101.70;41.67;;;1.40;99.90;;;;;;5015535;28;20712;-86
2021/11/01 23:41:17;;;;;;;104.17;40.53;;;;;;;;;;5015711;28;20276;-87
2021/11/01 23:43:43;;;;;;;87.07;38.17;;;;;;;;;;5015092;28;20189;-86
2021/11/01 23:46:09;;;;;;;85.97;37.87;;;;;;;;;;5016931;28;20185;-86
2021/11/01 23:48:35;;;;;;;83.00;38.50;;;;;;;;;;5017976;28;20181;-87
2021/11/01 23:51:01;;;;;;;90.70;38.97;;;;;;;;;;5018189;28;20697;-87
2021/11/01 23:56:02;;;;;;;122.47;47.03;;;;;;;;;;5028951;28;20158;-88
2021/11/01 23:58:28;;;;;;;169.70;62.47;;;;;;;;;;5040280;28;20193;-87
